HAZ4756 ZHHH-ZYTX
Flight info
| Callsign | HAZ4756 |
|---|---|
| Flight time | 2h 9m |
| Altitude | 37100 |
| Route | BENBI1E BENBI W56 VYK W34 OTBUL W35 CHG A575 OMDUS OMD74A |
| Aircraft | A346/H-SDE2E3FGHIJ3J4J5M1RWXY/LB1D1 |
Departure
| Time | 2026-04-17 02:23 |
|---|---|
| Airport | Wuhan Tianhe International Airport (ZHHH) |
Arrival
| Time | 2026-04-17 04:33 |
|---|---|
| Airport | Shenyang Taoxian International Airport (ZYTX) |
| Time | Latitude | Longitude | Altitude | Speed | Heading |
|---|---|---|---|---|---|
| 2026-04-17 01:52 | 30.77541 | 114.21623 | 117 ft | 0 kts | 223° |
| 2026-04-17 02:10 | 30.77548 | 114.21630 | 117 ft | 3 kts | 221° |
| 2026-04-17 02:10 | 30.77563 | 114.21645 | 112 ft | 3 kts | 219° |
| 2026-04-17 02:11 | 30.77577 | 114.21658 | 112 ft | 2 kts | 223° |
| 2026-04-17 02:11 | 30.77588 | 114.21673 | 112 ft | 3 kts | 242° |
| 2026-04-17 02:11 | 30.77593 | 114.21688 | 112 ft | 3 kts | 270° |
| 2026-04-17 02:11 | 30.77590 | 114.21701 | 112 ft | 3 kts | 301° |
| 2026-04-17 02:12 | 30.77579 | 114.21718 | 112 ft | 3 kts | 313° |
| 2026-04-17 02:12 | 30.77566 | 114.21734 | 112 ft | 2 kts | 312° |
| 2026-04-17 02:12 | 30.77563 | 114.21737 | 112 ft | 0 kts | 311° |
| 2026-04-17 02:13 | 30.77564 | 114.21737 | 112 ft | 0 kts | 311° |
| 2026-04-17 02:14 | 30.77564 | 114.21736 | 112 ft | 1 kts | 311° |
| 2026-04-17 02:14 | 30.77574 | 114.21723 | 112 ft | 3 kts | 311° |
| 2026-04-17 02:14 | 30.77596 | 114.21695 | 112 ft | 6 kts | 311° |
| 2026-04-17 02:15 | 30.77630 | 114.21650 | 115 ft | 6 kts | 311° |
| 2026-04-17 02:15 | 30.77631 | 114.21649 | 115 ft | 0 kts | 311° |
| 2026-04-17 02:15 | 30.77635 | 114.21644 | 115 ft | 1 kts | 316° |
| 2026-04-17 02:15 | 30.77646 | 114.21631 | 115 ft | 3 kts | 314° |
| 2026-04-17 02:16 | 30.77668 | 114.21604 | 113 ft | 6 kts | 313° |
| 2026-04-17 02:16 | 30.77701 | 114.21563 | 113 ft | 8 kts | 313° |
| 2026-04-17 02:16 | 30.77747 | 114.21505 | 115 ft | 11 kts | 313° |
| 2026-04-17 02:16 | 30.77801 | 114.21435 | 113 ft | 13 kts | 309° |
| 2026-04-17 02:17 | 30.77862 | 114.21348 | 117 ft | 14 kts | 309° |
| 2026-04-17 02:17 | 30.77929 | 114.21258 | 115 ft | 15 kts | 311° |
| 2026-04-17 02:17 | 30.78004 | 114.21159 | 117 ft | 17 kts | 311° |
| 2026-04-17 02:17 | 30.78089 | 114.21047 | 116 ft | 20 kts | 311° |
| 2026-04-17 02:18 | 30.78133 | 114.20985 | 117 ft | 7 kts | 296° |
| 2026-04-17 02:18 | 30.78117 | 114.20936 | 115 ft | 8 kts | 231° |
| 2026-04-17 02:18 | 30.78069 | 114.20879 | 116 ft | 11 kts | 221° |
| 2026-04-17 02:18 | 30.78003 | 114.20813 | 118 ft | 14 kts | 221° |
| 2026-04-17 02:19 | 30.77926 | 114.20735 | 117 ft | 16 kts | 221° |
| 2026-04-17 02:19 | 30.77837 | 114.20644 | 116 ft | 19 kts | 221° |
| 2026-04-17 02:19 | 30.77734 | 114.20537 | 115 ft | 21 kts | 221° |
| 2026-04-17 02:19 | 30.77636 | 114.20435 | 114 ft | 18 kts | 220° |
| 2026-04-17 02:20 | 30.77552 | 114.20351 | 114 ft | 15 kts | 220° |
| 2026-04-17 02:20 | 30.77465 | 114.20265 | 113 ft | 18 kts | 220° |
| 2026-04-17 02:20 | 30.77365 | 114.20163 | 113 ft | 20 kts | 222° |
| 2026-04-17 02:20 | 30.77253 | 114.20047 | 112 ft | 23 kts | 221° |
| 2026-04-17 02:21 | 30.77136 | 114.19927 | 111 ft | 19 kts | 221° |
| 2026-04-17 02:21 | 30.77095 | 114.19884 | 113 ft | 7 kts | 230° |
| 2026-04-17 02:21 | 30.77094 | 114.19829 | 113 ft | 8 kts | 300° |
| 2026-04-17 02:21 | 30.77135 | 114.19766 | 112 ft | 11 kts | 310° |
| 2026-04-17 02:22 | 30.77193 | 114.19692 | 113 ft | 13 kts | 316° |
| 2026-04-17 02:22 | 30.77278 | 114.19700 | 112 ft | 14 kts | 37° |
| 2026-04-17 02:22 | 30.77400 | 114.19818 | 112 ft | 47 kts | 40° |
| 2026-04-17 02:22 | 30.77813 | 114.20234 | 111 ft | 108 kts | 41° |
| 2026-04-17 02:23 | 30.78514 | 114.20958 | 117 ft | 159 kts | 40° |
| 2026-04-17 02:23 | 30.79451 | 114.21925 | 214 ft | 195 kts | 41° |
| 2026-04-17 02:23 | 30.80483 | 114.23013 | 708 ft | 203 kts | 41° |
| 2026-04-17 02:23 | 30.81621 | 114.23954 | 1479 ft | 197 kts | 24° |
| 2026-04-17 02:24 | 30.82897 | 114.24484 | 2198 ft | 196 kts | 16° |
| 2026-04-17 02:24 | 30.84229 | 114.25022 | 2554 ft | 210 kts | 19° |
| 2026-04-17 02:24 | 30.85653 | 114.25552 | 2890 ft | 225 kts | 9° |
| 2026-04-17 02:24 | 30.87235 | 114.25452 | 3357 ft | 235 kts | 340° |
| 2026-04-17 02:25 | 30.88616 | 114.24370 | 4008 ft | 241 kts | 314° |
| 2026-04-17 02:25 | 30.89710 | 114.22913 | 4756 ft | 243 kts | 313° |
| 2026-04-17 02:25 | 30.90843 | 114.21385 | 5462 ft | 248 kts | 313° |
| 2026-04-17 02:25 | 30.91971 | 114.19885 | 6186 ft | 251 kts | 314° |
| 2026-04-17 02:26 | 30.93150 | 114.18328 | 6916 ft | 254 kts | 314° |
| 2026-04-17 02:26 | 30.94312 | 114.16800 | 7654 ft | 256 kts | 314° |
| 2026-04-17 02:26 | 30.95503 | 114.15241 | 8435 ft | 257 kts | 316° |
| 2026-04-17 02:26 | 30.96957 | 114.14065 | 9212 ft | 256 kts | 343° |
| 2026-04-17 02:27 | 30.98717 | 114.13845 | 9992 ft | 258 kts | 9° |
| 2026-04-17 02:27 | 31.00422 | 114.14622 | 10430 ft | 275 kts | 36° |
| 2026-04-17 02:27 | 31.01916 | 114.16118 | 10835 ft | 292 kts | 40° |
| 2026-04-17 02:27 | 31.03466 | 114.17763 | 11217 ft | 310 kts | 40° |
| 2026-04-17 02:28 | 31.05124 | 114.19485 | 11585 ft | 328 kts | 38° |
| 2026-04-17 02:28 | 31.07037 | 114.21052 | 11928 ft | 344 kts | 28° |
| 2026-04-17 02:28 | 31.09244 | 114.22305 | 12276 ft | 361 kts | 20° |
| 2026-04-17 02:28 | 31.11656 | 114.23335 | 12598 ft | 378 kts | 18° |
| 2026-04-17 02:29 | 31.14187 | 114.24353 | 13161 ft | 388 kts | 17° |
| 2026-04-17 02:29 | 31.16759 | 114.25387 | 13925 ft | 393 kts | 17° |
| 2026-04-17 02:29 | 31.19356 | 114.26438 | 14609 ft | 398 kts | 17° |
| 2026-04-17 02:29 | 31.21988 | 114.27507 | 15250 ft | 404 kts | 17° |
| 2026-04-17 02:30 | 31.24660 | 114.28599 | 15877 ft | 409 kts | 17° |
| 2026-04-17 02:30 | 31.27367 | 114.29709 | 16514 ft | 414 kts | 17° |
| 2026-04-17 02:30 | 31.30099 | 114.30832 | 17147 ft | 420 kts | 17° |
| 2026-04-17 02:30 | 31.32884 | 114.31945 | 17750 ft | 424 kts | 14° |
| 2026-04-17 02:31 | 31.35758 | 114.32781 | 18350 ft | 428 kts | 8° |
| 2026-04-17 02:31 | 31.38734 | 114.33254 | 18880 ft | 431 kts | 1° |
| 2026-04-17 02:31 | 31.44967 | 114.33504 | 20101 ft | 436 kts | 358° |
| 2026-04-17 02:32 | 31.48003 | 114.33572 | 20696 ft | 439 kts | 357° |
| 2026-04-17 02:32 | 31.50076 | 114.33621 | 21083 ft | 441 kts | 357° |
| 2026-04-17 02:32 | 31.53150 | 114.33699 | 21683 ft | 444 kts | 357° |
| 2026-04-17 02:32 | 31.57272 | 114.33812 | 22444 ft | 449 kts | 357° |
| 2026-04-17 02:33 | 31.59342 | 114.33871 | 22828 ft | 451 kts | 357° |
| 2026-04-17 02:33 | 31.62489 | 114.33962 | 23394 ft | 454 kts | 356° |
| 2026-04-17 02:33 | 31.65657 | 114.34056 | 23909 ft | 457 kts | 356° |
| 2026-04-17 02:33 | 31.68852 | 114.34151 | 24347 ft | 461 kts | 356° |
| 2026-04-17 02:34 | 31.72066 | 114.34246 | 24797 ft | 464 kts | 356° |
| 2026-04-17 02:34 | 31.75309 | 114.34343 | 25223 ft | 467 kts | 356° |
| 2026-04-17 02:34 | 31.78570 | 114.34439 | 25688 ft | 471 kts | 356° |
| 2026-04-17 02:34 | 31.81859 | 114.34537 | 26131 ft | 474 kts | 355° |
| 2026-04-17 02:35 | 31.85163 | 114.34637 | 26559 ft | 478 kts | 355° |
| 2026-04-17 02:35 | 31.88492 | 114.34737 | 26978 ft | 481 kts | 355° |
| 2026-04-17 02:35 | 31.95242 | 114.34939 | 27803 ft | 488 kts | 355° |
| 2026-04-17 02:36 | 31.98644 | 114.35042 | 28266 ft | 490 kts | 355° |
| 2026-04-17 02:36 | 32.02041 | 114.35147 | 28891 ft | 488 kts | 355° |
| 2026-04-17 02:36 | 32.05434 | 114.35253 | 29544 ft | 486 kts | 355° |
| 2026-04-17 02:36 | 32.08808 | 114.35356 | 30156 ft | 485 kts | 354° |
| 2026-04-17 02:37 | 32.12211 | 114.35460 | 30626 ft | 485 kts | 354° |
| 2026-04-17 02:37 | 32.15583 | 114.35562 | 31066 ft | 486 kts | 354° |
| 2026-04-17 02:37 | 32.18967 | 114.35665 | 31519 ft | 486 kts | 353° |
| 2026-04-17 02:37 | 32.22349 | 114.35767 | 31977 ft | 486 kts | 353° |
| 2026-04-17 02:38 | 32.25737 | 114.35895 | 32449 ft | 488 kts | 354° |
| 2026-04-17 02:38 | 32.29125 | 114.36158 | 32919 ft | 489 kts | 355° |
| 2026-04-17 02:38 | 32.32516 | 114.36466 | 33381 ft | 489 kts | 355° |
| 2026-04-17 02:38 | 32.35916 | 114.36787 | 33846 ft | 489 kts | 355° |
| 2026-04-17 02:39 | 32.39295 | 114.37104 | 34267 ft | 488 kts | 355° |
| 2026-04-17 02:39 | 32.42681 | 114.37417 | 34633 ft | 488 kts | 355° |
| 2026-04-17 02:39 | 32.46067 | 114.37726 | 35003 ft | 488 kts | 355° |
| 2026-04-17 02:39 | 32.49447 | 114.38034 | 35334 ft | 488 kts | 355° |
| 2026-04-17 02:40 | 32.52832 | 114.38342 | 35648 ft | 489 kts | 355° |
| 2026-04-17 02:40 | 32.56227 | 114.38651 | 35904 ft | 490 kts | 355° |
| 2026-04-17 02:40 | 32.59636 | 114.38962 | 36152 ft | 492 kts | 355° |
| 2026-04-17 02:40 | 32.63054 | 114.39274 | 36399 ft | 494 kts | 355° |
| 2026-04-17 02:41 | 32.66480 | 114.39590 | 36628 ft | 495 kts | 355° |
| 2026-04-17 02:41 | 32.69919 | 114.39909 | 36871 ft | 497 kts | 355° |
| 2026-04-17 02:41 | 32.73371 | 114.40231 | 37086 ft | 498 kts | 355° |
| 2026-04-17 02:41 | 32.76840 | 114.40554 | 37119 ft | 500 kts | 355° |
| 2026-04-17 02:42 | 32.83779 | 114.41203 | 37133 ft | 500 kts | 355° |
| 2026-04-17 02:42 | 32.90717 | 114.41853 | 37136 ft | 500 kts | 356° |
| 2026-04-17 02:43 | 32.97657 | 114.42502 | 37129 ft | 500 kts | 356° |
| 2026-04-17 02:43 | 33.04597 | 114.43153 | 37133 ft | 500 kts | 356° |
| 2026-04-17 02:44 | 33.11538 | 114.43804 | 37134 ft | 500 kts | 356° |
| 2026-04-17 02:44 | 33.18469 | 114.44454 | 37133 ft | 500 kts | 356° |
| 2026-04-17 02:45 | 33.24233 | 114.44996 | 37133 ft | 499 kts | 356° |
| 2026-04-17 02:45 | 33.32910 | 114.45813 | 37135 ft | 499 kts | 356° |
| 2026-04-17 02:46 | 33.39839 | 114.46465 | 37133 ft | 499 kts | 356° |
| 2026-04-17 02:46 | 33.46755 | 114.47116 | 37132 ft | 499 kts | 356° |
| 2026-04-17 02:47 | 33.53672 | 114.47768 | 37136 ft | 498 kts | 356° |
| 2026-04-17 02:47 | 33.60579 | 114.48421 | 37134 ft | 498 kts | 356° |
| 2026-04-17 02:48 | 33.67486 | 114.49069 | 37137 ft | 497 kts | 356° |
| 2026-04-17 02:48 | 33.74388 | 114.49714 | 37136 ft | 497 kts | 356° |
| 2026-04-17 02:49 | 33.81275 | 114.50358 | 37134 ft | 496 kts | 356° |
| 2026-04-17 02:49 | 33.88155 | 114.51006 | 37129 ft | 496 kts | 356° |
| 2026-04-17 02:50 | 33.95028 | 114.51655 | 37136 ft | 495 kts | 356° |
| 2026-04-17 02:50 | 34.01892 | 114.52304 | 37133 ft | 494 kts | 356° |
| 2026-04-17 02:51 | 34.08746 | 114.52952 | 37134 ft | 493 kts | 356° |
| 2026-04-17 02:51 | 34.15584 | 114.53600 | 37136 ft | 493 kts | 356° |
| 2026-04-17 02:52 | 34.22407 | 114.54247 | 37138 ft | 492 kts | 356° |
| 2026-04-17 02:52 | 34.29228 | 114.54895 | 37131 ft | 491 kts | 356° |
| 2026-04-17 02:53 | 34.35982 | 114.55537 | 37138 ft | 490 kts | 356° |
| 2026-04-17 02:53 | 34.42775 | 114.56184 | 37142 ft | 489 kts | 356° |
| 2026-04-17 02:54 | 34.49570 | 114.56832 | 37137 ft | 489 kts | 356° |
| 2026-04-17 02:54 | 34.56335 | 114.57474 | 37131 ft | 488 kts | 356° |
| 2026-04-17 02:55 | 34.62002 | 114.58012 | 37138 ft | 487 kts | 356° |
| 2026-04-17 02:55 | 34.69849 | 114.58758 | 37139 ft | 486 kts | 356° |
| 2026-04-17 02:56 | 34.75496 | 114.59296 | 37142 ft | 485 kts | 356° |
| 2026-04-17 02:56 | 34.82223 | 114.59937 | 37142 ft | 485 kts | 356° |
| 2026-04-17 02:57 | 34.88948 | 114.60579 | 37139 ft | 484 kts | 356° |
| 2026-04-17 02:57 | 34.95659 | 114.61221 | 37135 ft | 484 kts | 356° |
| 2026-04-17 02:58 | 35.02374 | 114.61864 | 37139 ft | 483 kts | 356° |
| 2026-04-17 02:58 | 35.09078 | 114.62507 | 37138 ft | 483 kts | 356° |
| 2026-04-17 02:59 | 35.15777 | 114.63150 | 37138 ft | 483 kts | 356° |
| 2026-04-17 02:59 | 35.22427 | 114.63790 | 37144 ft | 483 kts | 356° |
| 2026-04-17 03:00 | 35.29171 | 114.64441 | 37142 ft | 482 kts | 356° |
| 2026-04-17 03:00 | 35.35865 | 114.65087 | 37142 ft | 482 kts | 356° |
| 2026-04-17 03:01 | 35.42504 | 114.65730 | 37142 ft | 482 kts | 356° |
| 2026-04-17 03:01 | 35.49185 | 114.66378 | 37142 ft | 482 kts | 356° |
| 2026-04-17 03:02 | 35.55861 | 114.67026 | 37144 ft | 481 kts | 356° |
| 2026-04-17 03:02 | 35.62534 | 114.67675 | 37142 ft | 480 kts | 356° |
| 2026-04-17 03:03 | 35.69193 | 114.68324 | 37139 ft | 480 kts | 356° |
| 2026-04-17 03:03 | 35.75848 | 114.68974 | 37138 ft | 479 kts | 356° |
| 2026-04-17 03:04 | 35.82493 | 114.69624 | 37141 ft | 479 kts | 356° |
| 2026-04-17 03:04 | 35.89139 | 114.70274 | 37141 ft | 479 kts | 356° |
| 2026-04-17 03:05 | 35.95778 | 114.70924 | 37140 ft | 479 kts | 356° |
| 2026-04-17 03:05 | 36.02416 | 114.71576 | 37140 ft | 478 kts | 356° |
| 2026-04-17 03:06 | 36.09054 | 114.72229 | 37140 ft | 478 kts | 357° |
| 2026-04-17 03:06 | 36.15694 | 114.72879 | 37144 ft | 478 kts | 356° |
| 2026-04-17 03:07 | 36.22316 | 114.73527 | 37138 ft | 478 kts | 357° |
| 2026-04-17 03:07 | 36.28945 | 114.74195 | 37131 ft | 479 kts | 358° |
| 2026-04-17 03:08 | 36.35567 | 114.75591 | 37131 ft | 487 kts | 6° |
| 2026-04-17 03:08 | 36.42102 | 114.78019 | 37129 ft | 494 kts | 13° |
| 2026-04-17 03:09 | 36.48465 | 114.81364 | 37127 ft | 499 kts | 18° |
| 2026-04-17 03:09 | 36.54745 | 114.85039 | 37118 ft | 498 kts | 18° |
| 2026-04-17 03:10 | 36.61019 | 114.88712 | 37120 ft | 498 kts | 18° |
| 2026-04-17 03:10 | 36.67284 | 114.92363 | 37123 ft | 497 kts | 18° |
| 2026-04-17 03:11 | 36.73558 | 114.96018 | 37117 ft | 497 kts | 18° |
| 2026-04-17 03:11 | 36.79826 | 114.99673 | 37109 ft | 497 kts | 18° |
| 2026-04-17 03:12 | 36.86085 | 115.03329 | 37113 ft | 497 kts | 18° |
| 2026-04-17 03:12 | 36.92303 | 115.06969 | 37108 ft | 497 kts | 18° |
| 2026-04-17 03:13 | 36.98564 | 115.10639 | 37112 ft | 496 kts | 18° |
| 2026-04-17 03:13 | 37.04855 | 115.14334 | 37119 ft | 496 kts | 18° |
| 2026-04-17 03:14 | 37.11101 | 115.18010 | 37108 ft | 496 kts | 18° |
| 2026-04-17 03:14 | 37.17300 | 115.21665 | 37109 ft | 495 kts | 18° |
| 2026-04-17 03:15 | 37.23533 | 115.25346 | 37104 ft | 495 kts | 19° |
| 2026-04-17 03:15 | 37.29756 | 115.29028 | 37107 ft | 494 kts | 19° |
| 2026-04-17 03:16 | 37.35965 | 115.32709 | 37107 ft | 493 kts | 19° |
| 2026-04-17 03:16 | 37.42168 | 115.36393 | 37099 ft | 492 kts | 19° |
| 2026-04-17 03:17 | 37.48374 | 115.40085 | 37102 ft | 492 kts | 19° |
| 2026-04-17 03:17 | 37.54561 | 115.43773 | 37096 ft | 491 kts | 19° |
| 2026-04-17 03:18 | 37.60736 | 115.47460 | 37091 ft | 491 kts | 19° |
| 2026-04-17 03:18 | 37.66906 | 115.51152 | 37091 ft | 491 kts | 19° |
| 2026-04-17 03:19 | 37.73130 | 115.54716 | 37096 ft | 486 kts | 14° |
| 2026-04-17 03:19 | 37.79560 | 115.57137 | 37094 ft | 477 kts | 5° |
| 2026-04-17 03:20 | 37.86072 | 115.58199 | 37095 ft | 468 kts | 355° |
| 2026-04-17 03:20 | 37.92516 | 115.58041 | 37089 ft | 462 kts | 349° |
| 2026-04-17 03:21 | 37.98931 | 115.57510 | 37091 ft | 463 kts | 349° |
| 2026-04-17 03:21 | 38.05361 | 115.57005 | 37091 ft | 463 kts | 350° |
| 2026-04-17 03:22 | 38.11813 | 115.56612 | 37084 ft | 464 kts | 351° |
| 2026-04-17 03:22 | 38.18268 | 115.56274 | 37081 ft | 466 kts | 353° |
| 2026-04-17 03:23 | 38.24786 | 115.56880 | 37082 ft | 475 kts | 2° |
| 2026-04-17 03:23 | 38.31268 | 115.58855 | 37085 ft | 483 kts | 12° |
| 2026-04-17 03:24 | 38.37521 | 115.62184 | 37086 ft | 490 kts | 20° |
| 2026-04-17 03:24 | 38.43613 | 115.66080 | 37079 ft | 489 kts | 21° |
| 2026-04-17 03:25 | 38.49696 | 115.69957 | 37080 ft | 488 kts | 21° |
| 2026-04-17 03:25 | 38.55745 | 115.73778 | 37082 ft | 488 kts | 21° |
| 2026-04-17 03:26 | 38.61759 | 115.78004 | 37083 ft | 492 kts | 27° |
| 2026-04-17 03:26 | 38.67287 | 115.83097 | 37080 ft | 496 kts | 34° |
| 2026-04-17 03:27 | 38.72399 | 115.89194 | 37080 ft | 501 kts | 42° |
| 2026-04-17 03:27 | 38.77078 | 115.95844 | 37084 ft | 501 kts | 44° |
| 2026-04-17 03:28 | 38.81677 | 116.02493 | 37086 ft | 501 kts | 44° |
| 2026-04-17 03:28 | 38.86345 | 116.09214 | 37078 ft | 501 kts | 44° |
| 2026-04-17 03:29 | 38.90982 | 116.15881 | 37079 ft | 500 kts | 44° |
| 2026-04-17 03:29 | 38.95619 | 116.22559 | 37071 ft | 500 kts | 44° |
| 2026-04-17 03:30 | 39.00224 | 116.29202 | 37076 ft | 500 kts | 44° |
| 2026-04-17 03:30 | 39.04881 | 116.35936 | 37082 ft | 500 kts | 44° |
| 2026-04-17 03:31 | 39.09465 | 116.42581 | 37084 ft | 500 kts | 44° |
| 2026-04-17 03:31 | 39.13911 | 116.49507 | 37073 ft | 504 kts | 53° |
| 2026-04-17 03:32 | 39.16871 | 116.57799 | 37079 ft | 512 kts | 72° |
| 2026-04-17 03:32 | 39.17778 | 116.66914 | 37078 ft | 516 kts | 91° |
| 2026-04-17 03:33 | 39.16724 | 116.76050 | 37081 ft | 515 kts | 102° |
| 2026-04-17 03:33 | 39.15185 | 116.85101 | 37075 ft | 516 kts | 102° |
| 2026-04-17 03:34 | 39.13726 | 116.94159 | 37078 ft | 516 kts | 102° |
| 2026-04-17 03:34 | 39.12356 | 117.03253 | 37078 ft | 516 kts | 100° |
| 2026-04-17 03:35 | 39.11177 | 117.12379 | 37086 ft | 516 kts | 99° |
| 2026-04-17 03:35 | 39.09989 | 117.21518 | 37088 ft | 516 kts | 100° |
| 2026-04-17 03:36 | 39.08222 | 117.35228 | 37086 ft | 517 kts | 97° |
| 2026-04-17 03:37 | 39.07729 | 117.44477 | 37090 ft | 518 kts | 90° |
| 2026-04-17 03:37 | 39.07648 | 117.53749 | 37087 ft | 518 kts | 90° |
| 2026-04-17 03:38 | 39.07569 | 117.63028 | 37088 ft | 518 kts | 90° |
| 2026-04-17 03:38 | 39.07481 | 117.70816 | 37090 ft | 518 kts | 90° |
| 2026-04-17 03:39 | 39.07341 | 117.81602 | 37099 ft | 519 kts | 90° |
| 2026-04-17 03:39 | 39.07234 | 117.89334 | 37099 ft | 519 kts | 91° |
| 2026-04-17 03:40 | 39.07075 | 117.98644 | 37103 ft | 519 kts | 92° |
| 2026-04-17 03:40 | 39.06334 | 118.07890 | 37106 ft | 519 kts | 100° |
| 2026-04-17 03:41 | 39.04921 | 118.17021 | 37109 ft | 520 kts | 103° |
| 2026-04-17 03:41 | 39.03434 | 118.26134 | 37108 ft | 520 kts | 103° |
| 2026-04-17 03:42 | 39.01990 | 118.35263 | 37104 ft | 521 kts | 99° |
| 2026-04-17 03:42 | 39.01875 | 118.39921 | 37080 ft | 522 kts | 81° |
| 2026-04-17 03:42 | 39.02799 | 118.44416 | 37099 ft | 519 kts | 63° |
| 2026-04-17 03:42 | 39.04660 | 118.48337 | 37109 ft | 510 kts | 45° |
| 2026-04-17 03:43 | 39.07248 | 118.51370 | 37114 ft | 499 kts | 27° |
| 2026-04-17 03:43 | 39.10306 | 118.53336 | 37120 ft | 485 kts | 11° |
| 2026-04-17 03:43 | 39.13545 | 118.54388 | 37135 ft | 479 kts | 6° |
| 2026-04-17 03:44 | 39.20066 | 118.56181 | 37115 ft | 480 kts | 6° |
| 2026-04-17 03:44 | 39.26589 | 118.58072 | 37108 ft | 481 kts | 7° |
| 2026-04-17 03:45 | 39.33100 | 118.60036 | 37108 ft | 480 kts | 7° |
| 2026-04-17 03:45 | 39.39607 | 118.62025 | 37103 ft | 480 kts | 7° |
| 2026-04-17 03:46 | 39.46106 | 118.64019 | 37098 ft | 480 kts | 7° |
| 2026-04-17 03:46 | 39.52598 | 118.66014 | 37100 ft | 479 kts | 7° |
| 2026-04-17 03:47 | 39.59087 | 118.68011 | 37091 ft | 479 kts | 7° |
| 2026-04-17 03:47 | 39.65570 | 118.70053 | 37084 ft | 480 kts | 9° |
| 2026-04-17 03:48 | 39.71920 | 118.72852 | 37092 ft | 485 kts | 17° |
| 2026-04-17 03:48 | 39.78029 | 118.76722 | 37085 ft | 491 kts | 24° |
| 2026-04-17 03:49 | 39.83784 | 118.81599 | 37085 ft | 495 kts | 30° |
| 2026-04-17 03:49 | 39.89317 | 118.86835 | 37083 ft | 495 kts | 31° |
| 2026-04-17 03:50 | 39.94924 | 118.92153 | 37082 ft | 495 kts | 31° |
| 2026-04-17 03:50 | 40.00467 | 118.97392 | 37078 ft | 495 kts | 31° |
| 2026-04-17 03:51 | 40.06042 | 119.02659 | 37080 ft | 495 kts | 31° |
| 2026-04-17 03:51 | 40.11618 | 119.07937 | 37076 ft | 495 kts | 31° |
| 2026-04-17 03:52 | 40.17197 | 119.13230 | 37066 ft | 495 kts | 31° |
| 2026-04-17 03:52 | 40.22788 | 119.18542 | 37067 ft | 495 kts | 31° |
| 2026-04-17 03:53 | 40.28391 | 119.23773 | 37061 ft | 494 kts | 30° |
| 2026-04-17 03:53 | 40.33998 | 119.28991 | 37059 ft | 494 kts | 30° |
| 2026-04-17 03:54 | 40.39606 | 119.34228 | 37058 ft | 494 kts | 30° |
| 2026-04-17 03:54 | 40.45207 | 119.39474 | 37047 ft | 495 kts | 31° |
| 2026-04-17 03:55 | 40.50807 | 119.44734 | 37036 ft | 494 kts | 31° |
| 2026-04-17 03:55 | 40.56399 | 119.49996 | 37036 ft | 494 kts | 31° |
| 2026-04-17 03:56 | 40.61996 | 119.55274 | 37030 ft | 494 kts | 31° |
| 2026-04-17 03:56 | 40.67578 | 119.60551 | 37019 ft | 494 kts | 31° |
| 2026-04-17 03:57 | 40.73168 | 119.65844 | 37013 ft | 494 kts | 31° |
| 2026-04-17 03:57 | 40.78708 | 119.71102 | 37010 ft | 494 kts | 31° |
| 2026-04-17 03:58 | 40.84287 | 119.76407 | 37008 ft | 494 kts | 31° |
| 2026-04-17 03:58 | 40.89863 | 119.81721 | 37004 ft | 494 kts | 31° |
| 2026-04-17 03:59 | 40.95443 | 119.87050 | 36997 ft | 494 kts | 31° |
| 2026-04-17 03:59 | 41.01020 | 119.92388 | 36987 ft | 494 kts | 31° |
| 2026-04-17 04:00 | 41.06590 | 119.97731 | 36985 ft | 494 kts | 31° |
| 2026-04-17 04:00 | 41.12159 | 120.03083 | 36973 ft | 495 kts | 31° |
| 2026-04-17 04:01 | 41.17736 | 120.08455 | 36976 ft | 495 kts | 31° |
| 2026-04-17 04:01 | 41.23308 | 120.13833 | 36966 ft | 495 kts | 31° |
| 2026-04-17 04:02 | 41.28880 | 120.19224 | 36966 ft | 495 kts | 32° |
| 2026-04-17 04:02 | 41.34452 | 120.24626 | 36964 ft | 495 kts | 32° |
| 2026-04-17 04:03 | 41.40023 | 120.30039 | 36804 ft | 496 kts | 32° |
| 2026-04-17 04:03 | 41.42807 | 120.32751 | 36542 ft | 493 kts | 32° |
| 2026-04-17 04:03 | 41.45560 | 120.35461 | 36282 ft | 491 kts | 34° |
| 2026-04-17 04:03 | 41.48089 | 120.38523 | 36024 ft | 493 kts | 43° |
| 2026-04-17 04:04 | 41.50274 | 120.42063 | 35765 ft | 495 kts | 51° |
| 2026-04-17 04:04 | 41.52065 | 120.46010 | 35523 ft | 499 kts | 60° |
| 2026-04-17 04:04 | 41.53408 | 120.50284 | 35270 ft | 502 kts | 69° |
| 2026-04-17 04:04 | 41.54273 | 120.54820 | 35024 ft | 504 kts | 78° |
| 2026-04-17 04:05 | 41.54670 | 120.59482 | 34805 ft | 506 kts | 84° |
| 2026-04-17 04:05 | 41.54889 | 120.64175 | 34563 ft | 507 kts | 85° |
| 2026-04-17 04:05 | 41.55080 | 120.68898 | 34323 ft | 508 kts | 85° |
| 2026-04-17 04:05 | 41.55281 | 120.73608 | 34088 ft | 508 kts | 85° |
| 2026-04-17 04:06 | 41.55500 | 120.78328 | 33846 ft | 509 kts | 84° |
| 2026-04-17 04:06 | 41.55732 | 120.83049 | 33574 ft | 509 kts | 84° |
| 2026-04-17 04:06 | 41.55970 | 120.87772 | 33284 ft | 508 kts | 84° |
| 2026-04-17 04:06 | 41.56209 | 120.92487 | 33029 ft | 508 kts | 84° |
| 2026-04-17 04:07 | 41.56448 | 120.97201 | 32759 ft | 508 kts | 84° |
| 2026-04-17 04:07 | 41.56684 | 121.01905 | 32489 ft | 508 kts | 85° |
| 2026-04-17 04:07 | 41.56918 | 121.06612 | 32229 ft | 507 kts | 85° |
| 2026-04-17 04:07 | 41.57145 | 121.11255 | 31972 ft | 507 kts | 85° |
| 2026-04-17 04:08 | 41.57377 | 121.16029 | 31707 ft | 507 kts | 85° |
| 2026-04-17 04:08 | 41.57588 | 121.20736 | 31453 ft | 506 kts | 86° |
| 2026-04-17 04:08 | 41.57736 | 121.25375 | 31143 ft | 506 kts | 87° |
| 2026-04-17 04:08 | 41.57864 | 121.30151 | 30727 ft | 506 kts | 87° |
| 2026-04-17 04:09 | 41.57986 | 121.34857 | 30208 ft | 506 kts | 87° |
| 2026-04-17 04:09 | 41.58108 | 121.39567 | 29551 ft | 507 kts | 87° |
| 2026-04-17 04:09 | 41.58229 | 121.44200 | 28880 ft | 506 kts | 87° |
| 2026-04-17 04:09 | 41.58354 | 121.48969 | 28228 ft | 505 kts | 86° |
| 2026-04-17 04:10 | 41.58478 | 121.53663 | 27562 ft | 505 kts | 86° |
| 2026-04-17 04:10 | 41.58602 | 121.58364 | 26957 ft | 503 kts | 86° |
| 2026-04-17 04:10 | 41.58724 | 121.63030 | 26586 ft | 501 kts | 86° |
| 2026-04-17 04:10 | 41.58845 | 121.67674 | 26149 ft | 498 kts | 86° |
| 2026-04-17 04:11 | 41.58962 | 121.72217 | 25656 ft | 494 kts | 86° |
| 2026-04-17 04:11 | 41.59077 | 121.76812 | 25209 ft | 489 kts | 86° |
| 2026-04-17 04:11 | 41.59191 | 121.81399 | 24774 ft | 485 kts | 86° |
| 2026-04-17 04:11 | 41.59300 | 121.85900 | 24346 ft | 480 kts | 86° |
| 2026-04-17 04:12 | 41.59407 | 121.90290 | 23937 ft | 476 kts | 86° |
| 2026-04-17 04:12 | 41.59512 | 121.94693 | 23528 ft | 473 kts | 86° |
| 2026-04-17 04:12 | 41.59614 | 121.99069 | 23053 ft | 469 kts | 86° |
| 2026-04-17 04:12 | 41.59712 | 122.03409 | 22613 ft | 464 kts | 86° |
| 2026-04-17 04:13 | 41.59759 | 122.07712 | 22189 ft | 460 kts | 89° |
| 2026-04-17 04:13 | 41.59625 | 122.11972 | 21780 ft | 457 kts | 92° |
| 2026-04-17 04:13 | 41.59297 | 122.16179 | 21365 ft | 453 kts | 96° |
| 2026-04-17 04:13 | 41.58846 | 122.20338 | 20954 ft | 450 kts | 97° |
| 2026-04-17 04:14 | 41.58378 | 122.24457 | 20556 ft | 446 kts | 97° |
| 2026-04-17 04:14 | 41.57911 | 122.28544 | 20151 ft | 443 kts | 97° |
| 2026-04-17 04:14 | 41.57449 | 122.32601 | 19742 ft | 440 kts | 97° |
| 2026-04-17 04:14 | 41.56994 | 122.36626 | 19343 ft | 437 kts | 97° |
| 2026-04-17 04:15 | 41.56544 | 122.40626 | 18944 ft | 434 kts | 97° |
| 2026-04-17 04:15 | 41.56096 | 122.44601 | 18539 ft | 431 kts | 97° |
| 2026-04-17 04:15 | 41.55649 | 122.48552 | 18132 ft | 429 kts | 97° |
| 2026-04-17 04:15 | 41.55204 | 122.52488 | 17696 ft | 426 kts | 97° |
| 2026-04-17 04:16 | 41.54765 | 122.56377 | 17271 ft | 422 kts | 97° |
| 2026-04-17 04:16 | 41.54326 | 122.60243 | 16870 ft | 418 kts | 97° |
| 2026-04-17 04:16 | 41.53889 | 122.64070 | 16475 ft | 415 kts | 98° |
| 2026-04-17 04:16 | 41.53453 | 122.67880 | 16073 ft | 413 kts | 98° |
| 2026-04-17 04:17 | 41.53021 | 122.71657 | 15677 ft | 410 kts | 98° |
| 2026-04-17 04:17 | 41.52588 | 122.75406 | 15285 ft | 407 kts | 98° |
| 2026-04-17 04:17 | 41.52155 | 122.79143 | 14891 ft | 405 kts | 98° |
| 2026-04-17 04:17 | 41.51724 | 122.82856 | 14499 ft | 403 kts | 99° |
| 2026-04-17 04:18 | 41.51295 | 122.86546 | 14109 ft | 401 kts | 99° |
| 2026-04-17 04:18 | 41.50865 | 122.90216 | 13713 ft | 399 kts | 99° |
| 2026-04-17 04:18 | 41.50436 | 122.93875 | 13282 ft | 397 kts | 99° |
| 2026-04-17 04:18 | 41.50005 | 122.97531 | 12864 ft | 395 kts | 99° |
| 2026-04-17 04:19 | 41.49586 | 123.01084 | 12470 ft | 392 kts | 99° |
| 2026-04-17 04:19 | 41.49165 | 123.04638 | 12295 ft | 380 kts | 99° |
| 2026-04-17 04:19 | 41.48753 | 123.08115 | 12216 ft | 367 kts | 99° |
| 2026-04-17 04:19 | 41.48364 | 123.11378 | 12096 ft | 355 kts | 99° |
| 2026-04-17 04:20 | 41.47980 | 123.14574 | 11988 ft | 343 kts | 99° |
| 2026-04-17 04:20 | 41.47607 | 123.17658 | 11892 ft | 331 kts | 99° |
| 2026-04-17 04:20 | 41.47258 | 123.20642 | 11787 ft | 319 kts | 96° |
| 2026-04-17 04:20 | 41.47235 | 123.23547 | 11683 ft | 310 kts | 83° |
| 2026-04-17 04:21 | 41.47646 | 123.26369 | 11377 ft | 309 kts | 73° |
| 2026-04-17 04:21 | 41.48246 | 123.29109 | 11114 ft | 307 kts | 71° |
| 2026-04-17 04:21 | 41.48869 | 123.31831 | 10836 ft | 305 kts | 71° |
| 2026-04-17 04:21 | 41.49474 | 123.34538 | 10561 ft | 303 kts | 72° |
| 2026-04-17 04:22 | 41.50060 | 123.37232 | 10292 ft | 301 kts | 72° |
| 2026-04-17 04:22 | 41.50686 | 123.39880 | 10033 ft | 298 kts | 67° |
| 2026-04-17 04:22 | 41.51510 | 123.42398 | 9753 ft | 294 kts | 60° |
| 2026-04-17 04:22 | 41.52472 | 123.44799 | 9448 ft | 292 kts | 58° |
| 2026-04-17 04:23 | 41.53461 | 123.47173 | 9130 ft | 291 kts | 58° |
| 2026-04-17 04:23 | 41.54442 | 123.49534 | 8824 ft | 290 kts | 59° |
| 2026-04-17 04:23 | 41.55411 | 123.51893 | 8534 ft | 289 kts | 59° |
| 2026-04-17 04:23 | 41.56373 | 123.54246 | 8234 ft | 288 kts | 58° |
| 2026-04-17 04:24 | 41.57445 | 123.56501 | 7936 ft | 286 kts | 52° |
| 2026-04-17 04:24 | 41.58689 | 123.58564 | 7653 ft | 285 kts | 47° |
| 2026-04-17 04:24 | 41.60004 | 123.60552 | 7343 ft | 285 kts | 46° |
| 2026-04-17 04:24 | 41.61325 | 123.62521 | 7046 ft | 284 kts | 47° |
| 2026-04-17 04:25 | 41.62637 | 123.64487 | 6741 ft | 283 kts | 47° |
| 2026-04-17 04:25 | 41.63945 | 123.66464 | 6459 ft | 283 kts | 48° |
| 2026-04-17 04:25 | 41.64811 | 123.67772 | 6276 ft | 283 kts | 48° |
| 2026-04-17 04:25 | 41.66119 | 123.69742 | 5956 ft | 283 kts | 48° |
| 2026-04-17 04:26 | 41.67427 | 123.71714 | 5658 ft | 283 kts | 48° |
| 2026-04-17 04:26 | 41.68728 | 123.73676 | 5378 ft | 281 kts | 49° |
| 2026-04-17 04:26 | 41.70015 | 123.75637 | 5097 ft | 280 kts | 49° |
| 2026-04-17 04:26 | 41.71471 | 123.77346 | 4750 ft | 278 kts | 22° |
| 2026-04-17 04:27 | 41.73311 | 123.77822 | 4469 ft | 267 kts | 348° |
| 2026-04-17 04:27 | 41.74997 | 123.77012 | 4209 ft | 252 kts | 318° |
| 2026-04-17 04:27 | 41.76310 | 123.75505 | 3968 ft | 245 kts | 311° |
| 2026-04-17 04:27 | 41.77501 | 123.73968 | 3921 ft | 228 kts | 301° |
| 2026-04-17 04:28 | 41.78090 | 123.72145 | 3903 ft | 207 kts | 266° |
| 2026-04-17 04:28 | 41.77855 | 123.70328 | 3975 ft | 191 kts | 246° |
| 2026-04-17 04:28 | 41.77269 | 123.68808 | 3797 ft | 180 kts | 234° |
| 2026-04-17 04:28 | 41.76543 | 123.67484 | 3553 ft | 173 kts | 230° |
| 2026-04-17 04:29 | 41.75798 | 123.66250 | 3363 ft | 168 kts | 229° |
| 2026-04-17 04:29 | 41.75048 | 123.65069 | 3134 ft | 165 kts | 227° |
| 2026-04-17 04:29 | 41.74290 | 123.63908 | 2918 ft | 166 kts | 227° |
| 2026-04-17 04:29 | 41.73528 | 123.62752 | 2707 ft | 165 kts | 226° |
| 2026-04-17 04:30 | 41.72767 | 123.61604 | 2498 ft | 161 kts | 227° |
| 2026-04-17 04:30 | 41.72050 | 123.60522 | 2263 ft | 150 kts | 227° |
| 2026-04-17 04:30 | 41.71367 | 123.59492 | 2073 ft | 147 kts | 227° |
| 2026-04-17 04:30 | 41.70697 | 123.58481 | 1861 ft | 144 kts | 227° |
| 2026-04-17 04:31 | 41.70031 | 123.57474 | 1699 ft | 144 kts | 227° |
| 2026-04-17 04:31 | 41.69366 | 123.56469 | 1526 ft | 146 kts | 228° |
| 2026-04-17 04:31 | 41.68693 | 123.55446 | 1283 ft | 145 kts | 225° |
| 2026-04-17 04:31 | 41.68026 | 123.54441 | 1109 ft | 145 kts | 225° |
| 2026-04-17 04:32 | 41.67359 | 123.53435 | 941 ft | 141 kts | 229° |
| 2026-04-17 04:32 | 41.66713 | 123.52448 | 747 ft | 142 kts | 226° |
| 2026-04-17 04:32 | 41.66051 | 123.51455 | 583 ft | 144 kts | 227° |
| 2026-04-17 04:32 | 41.65390 | 123.50456 | 367 ft | 144 kts | 227° |
| 2026-04-17 04:33 | 41.64728 | 123.49447 | 222 ft | 141 kts | 227° |
| 2026-04-17 04:33 | 41.64142 | 123.48557 | 219 ft | 105 kts | 228° |
| 2026-04-17 04:33 | 41.63798 | 123.48050 | 220 ft | 37 kts | 220° |
| 2026-04-17 04:33 | 41.63601 | 123.47912 | 213 ft | 27 kts | 199° |
| 2026-04-17 04:34 | 41.63403 | 123.47838 | 215 ft | 14 kts | 171° |
| 2026-04-17 04:34 | 41.63326 | 123.47901 | 218 ft | 10 kts | 139° |
| 2026-04-17 04:34 | 41.63263 | 123.47974 | 217 ft | 13 kts | 139° |
| 2026-04-17 04:35 | 41.63241 | 123.48022 | 217 ft | 7 kts | 83° |
| 2026-04-17 04:35 | 41.63248 | 123.48096 | 208 ft | 0 kts | 81° |
| 2026-04-17 04:35 | 41.63249 | 123.48105 | 208 ft | 2 kts | 82° |
| 2026-04-17 04:35 | 41.63251 | 123.48121 | 208 ft | 1 kts | 80° |
| 2026-04-17 04:36 | 41.63253 | 123.48133 | 208 ft | 1 kts | 78° |
| 2026-04-17 04:36 | 41.63253 | 123.48135 | 208 ft | 0 kts | 78° |